Los Angeles, California
Traffic Map
Current Weather Conditions
Los Angeles, California
Clear
Clear
57°
Feels Like: 57°
Wind Chill: 57° Ceiling: Unl
Heat Index: 57° Visibility: 10mi
Dew Point: 25° Wind: 0mph
Humidity: 29% Direction: ° ()
Pressure: 30.02in Gusts: 0mph
Raw Report DataKCQT 180447Z AUTO 00000KT 10SM CLR 14/M04 A3002 RMK AO2 SLP166 T01391039 $
Traffic Incident Summary
Active as of:
Severity:
Category:
InformationThere was an issue retrieving the traffic information for this location. Please try a different location or try again shortly.
Advertisements